Autoridad de Aeronautica Civil de Panamá***
**


taf




PERSPECTIVA DE AERODROMOS:

 

AERÓDROMOS

 

PRONOSTICO DE AERÓDROMO
TAF

AEROPUERTO INTL. DE TOCUMEN:


TAF AMD MPTO 252000Z 2520/2624 17007KT 9999 FEW018 TEMPO 2520/2524 SCT018 SCT090 TEMPO 2601/2605 28005KT TEMPO 2606/2610 VRB02KT=
AEROPUERTO MARCOS A. GELABERT:


TAF AMD MPMG 252000Z 2520/2606 19008KT 9999 FEW020 TEMPO 2520/2524 SCT018 SCT090 TEMPO 2601/2605 28005KT=
AEROPUERTO ENRIQUE MALEK:


TAF MPDA 251700Z 2518/2606 22007KT 9999 SCT018 SCT090 TEMPO 2519/2523 6000 TSRA SCT015CB BKN080 TEMPO 2600/2604 7000 RA TEMPO 2604/2606 VRB02KT NSW
AEROPUERTO PANAMA PACIFICO:


TAF AMD MPPA 252000Z 2520/2624 19007KT 9999 FEW018 TEMPO 2520/2524 SCT018 SCT090 TEMPO 2601/2605 00000KT=
AEROPUERTO SCARLETT MARTÍNEZ:


TAF AMD MPSM 252000Z 2520/2624 17007KT 9999 SCT018 SCT090 TEMPO 2601/2605 34005KT=


Contador: 18767